BEL5UB EBBR-EGCC
Flight info
| Callsign | BEL5UB |
|---|---|
| Flight time | 0h 54m |
| Altitude | 36000 |
| Route | DENUT L610 LAM UN57 WELIN T420 ELVOS |
| Aircraft | A320/M-DE3FGHIJ1LORVWY/H |
Departure
| Time | 2026-05-07 14:16 |
|---|---|
| Airport | Brussels Airport (EBBR) |
Arrival
| Time | 2026-05-07 15:10 |
|---|---|
| Airport | Manchester Airport (EGCC) |
| Time | Latitude | Longitude | Altitude | Speed | Heading |
|---|---|---|---|---|---|
| 2026-05-07 13:52 | 50.90071 | 4.48741 | 145 ft | 0 kts | 156° |
| 2026-05-07 14:03 | 50.90081 | 4.48734 | 145 ft | 4 kts | 153° |
| 2026-05-07 14:04 | 50.90101 | 4.48718 | 144 ft | 2 kts | 137° |
| 2026-05-07 14:04 | 50.90119 | 4.48695 | 143 ft | 4 kts | 146° |
| 2026-05-07 14:04 | 50.90138 | 4.48673 | 143 ft | 4 kts | 99° |
| 2026-05-07 14:04 | 50.90137 | 4.48663 | 142 ft | 1 kts | 65° |
| 2026-05-07 14:05 | 50.90137 | 4.48661 | 142 ft | 0 kts | 65° |
| 2026-05-07 14:07 | 50.90138 | 4.48667 | 142 ft | 4 kts | 65° |
| 2026-05-07 14:07 | 50.90160 | 4.48744 | 142 ft | 9 kts | 65° |
| 2026-05-07 14:07 | 50.90194 | 4.48859 | 142 ft | 12 kts | 65° |
| 2026-05-07 14:07 | 50.90231 | 4.48989 | 142 ft | 14 kts | 65° |
| 2026-05-07 14:08 | 50.90275 | 4.49140 | 140 ft | 17 kts | 66° |
| 2026-05-07 14:08 | 50.90326 | 4.49317 | 137 ft | 15 kts | 64° |
| 2026-05-07 14:08 | 50.90366 | 4.49456 | 136 ft | 13 kts | 67° |
| 2026-05-07 14:08 | 50.90319 | 4.49536 | 137 ft | 12 kts | 191° |
| 2026-05-07 14:09 | 50.90224 | 4.49498 | 137 ft | 18 kts | 194° |
| 2026-05-07 14:09 | 50.90097 | 4.49446 | 139 ft | 18 kts | 194° |
| 2026-05-07 14:09 | 50.89984 | 4.49400 | 143 ft | 15 kts | 195° |
| 2026-05-07 14:09 | 50.89878 | 4.49356 | 143 ft | 17 kts | 194° |
| 2026-05-07 14:10 | 50.89772 | 4.49314 | 144 ft | 15 kts | 194° |
| 2026-05-07 14:10 | 50.89670 | 4.49273 | 143 ft | 16 kts | 194° |
| 2026-05-07 14:10 | 50.89590 | 4.49208 | 143 ft | 11 kts | 212° |
| 2026-05-07 14:10 | 50.89502 | 4.49163 | 143 ft | 15 kts | 194° |
| 2026-05-07 14:11 | 50.89400 | 4.49122 | 141 ft | 15 kts | 194° |
| 2026-05-07 14:11 | 50.89304 | 4.49083 | 140 ft | 14 kts | 194° |
| 2026-05-07 14:11 | 50.89214 | 4.49046 | 139 ft | 12 kts | 194° |
| 2026-05-07 14:11 | 50.89153 | 4.49021 | 139 ft | 6 kts | 192° |
| 2026-05-07 14:12 | 50.89132 | 4.49033 | 140 ft | 3 kts | 128° |
| 2026-05-07 14:12 | 50.89144 | 4.49080 | 140 ft | 5 kts | 69° |
| 2026-05-07 14:12 | 50.89145 | 4.49085 | 140 ft | 0 kts | 70° |
| 2026-05-07 14:15 | 50.89147 | 4.49093 | 141 ft | 7 kts | 70° |
| 2026-05-07 14:15 | 50.89259 | 4.49577 | 145 ft | 84 kts | 70° |
| 2026-05-07 14:15 | 50.89533 | 4.50759 | 145 ft | 143 kts | 69° |
| 2026-05-07 14:16 | 50.89901 | 4.52383 | 527 ft | 156 kts | 71° |
| 2026-05-07 14:16 | 50.90261 | 4.53968 | 1311 ft | 151 kts | 66° |
| 2026-05-07 14:16 | 50.90558 | 4.54980 | 1735 ft | 154 kts | 63° |
| 2026-05-07 14:16 | 50.91231 | 4.56298 | 2268 ft | 161 kts | 25° |
| 2026-05-07 14:17 | 50.92378 | 4.56462 | 2572 ft | 180 kts | 343° |
| 2026-05-07 14:17 | 50.93442 | 4.55259 | 2827 ft | 203 kts | 304° |
| 2026-05-07 14:17 | 50.94187 | 4.53197 | 3080 ft | 228 kts | 298° |
| 2026-05-07 14:17 | 50.94973 | 4.50856 | 3444 ft | 252 kts | 298° |
| 2026-05-07 14:18 | 50.95809 | 4.48338 | 4146 ft | 262 kts | 298° |
| 2026-05-07 14:18 | 50.96669 | 4.45764 | 5013 ft | 266 kts | 298° |
| 2026-05-07 14:18 | 50.97543 | 4.43162 | 5878 ft | 269 kts | 298° |
| 2026-05-07 14:18 | 50.98434 | 4.40529 | 6739 ft | 272 kts | 298° |
| 2026-05-07 14:19 | 50.99337 | 4.37873 | 7554 ft | 275 kts | 297° |
| 2026-05-07 14:19 | 51.00255 | 4.35187 | 8369 ft | 279 kts | 297° |
| 2026-05-07 14:19 | 51.01184 | 4.32470 | 9184 ft | 282 kts | 297° |
| 2026-05-07 14:19 | 51.02126 | 4.29710 | 10002 ft | 286 kts | 297° |
| 2026-05-07 14:20 | 51.03086 | 4.26885 | 10512 ft | 300 kts | 297° |
| 2026-05-07 14:20 | 51.04110 | 4.23859 | 10727 ft | 322 kts | 297° |
| 2026-05-07 14:20 | 51.05194 | 4.20662 | 11217 ft | 333 kts | 297° |
| 2026-05-07 14:20 | 51.06298 | 4.17407 | 11903 ft | 337 kts | 297° |
| 2026-05-07 14:21 | 51.07417 | 4.14108 | 12635 ft | 340 kts | 297° |
| 2026-05-07 14:21 | 51.08545 | 4.10781 | 13356 ft | 344 kts | 297° |
| 2026-05-07 14:21 | 51.09683 | 4.07416 | 14051 ft | 347 kts | 297° |
| 2026-05-07 14:21 | 51.10829 | 4.04020 | 14684 ft | 350 kts | 297° |
| 2026-05-07 14:22 | 51.11984 | 4.00589 | 15322 ft | 353 kts | 297° |
| 2026-05-07 14:22 | 51.13142 | 3.97138 | 15958 ft | 355 kts | 297° |
| 2026-05-07 14:22 | 51.14308 | 3.93654 | 16587 ft | 358 kts | 297° |
| 2026-05-07 14:22 | 51.15482 | 3.90145 | 17207 ft | 360 kts | 297° |
| 2026-05-07 14:23 | 51.16665 | 3.86611 | 17819 ft | 363 kts | 297° |
| 2026-05-07 14:23 | 51.17857 | 3.83043 | 18421 ft | 366 kts | 297° |
| 2026-05-07 14:23 | 51.19057 | 3.79451 | 18950 ft | 369 kts | 297° |
| 2026-05-07 14:23 | 51.20265 | 3.75828 | 19473 ft | 371 kts | 297° |
| 2026-05-07 14:24 | 51.21478 | 3.72172 | 20004 ft | 374 kts | 296° |
| 2026-05-07 14:24 | 51.22701 | 3.68487 | 20536 ft | 377 kts | 296° |
| 2026-05-07 14:24 | 51.23704 | 3.64622 | 21054 ft | 378 kts | 285° |
| 2026-05-07 14:24 | 51.24313 | 3.60533 | 21575 ft | 380 kts | 281° |
| 2026-05-07 14:25 | 51.24862 | 3.56382 | 22113 ft | 383 kts | 281° |
| 2026-05-07 14:25 | 51.25416 | 3.52204 | 22614 ft | 386 kts | 281° |
| 2026-05-07 14:25 | 51.25973 | 3.48000 | 23116 ft | 389 kts | 281° |
| 2026-05-07 14:25 | 51.26535 | 3.43760 | 23611 ft | 392 kts | 281° |
| 2026-05-07 14:26 | 51.27099 | 3.39491 | 24031 ft | 394 kts | 281° |
| 2026-05-07 14:26 | 51.27660 | 3.35195 | 24438 ft | 396 kts | 280° |
| 2026-05-07 14:26 | 51.28218 | 3.30876 | 24846 ft | 398 kts | 280° |
| 2026-05-07 14:26 | 51.28776 | 3.26535 | 25242 ft | 400 kts | 280° |
| 2026-05-07 14:27 | 51.29333 | 3.22172 | 25622 ft | 402 kts | 280° |
| 2026-05-07 14:27 | 51.29890 | 3.17787 | 25992 ft | 404 kts | 280° |
| 2026-05-07 14:27 | 51.30448 | 3.13382 | 26355 ft | 406 kts | 280° |
| 2026-05-07 14:27 | 51.31009 | 3.08944 | 26715 ft | 408 kts | 280° |
| 2026-05-07 14:28 | 51.31571 | 3.04490 | 27062 ft | 410 kts | 280° |
| 2026-05-07 14:28 | 51.32135 | 3.00010 | 27407 ft | 412 kts | 280° |
| 2026-05-07 14:28 | 51.32700 | 2.95514 | 27743 ft | 414 kts | 280° |
| 2026-05-07 14:28 | 51.33267 | 2.90991 | 28080 ft | 416 kts | 280° |
| 2026-05-07 14:29 | 51.33836 | 2.86443 | 28410 ft | 418 kts | 280° |
| 2026-05-07 14:29 | 51.34406 | 2.81880 | 28729 ft | 420 kts | 280° |
| 2026-05-07 14:29 | 51.34975 | 2.77288 | 29035 ft | 422 kts | 280° |
| 2026-05-07 14:29 | 51.35544 | 2.72676 | 29340 ft | 424 kts | 280° |
| 2026-05-07 14:30 | 51.36117 | 2.68035 | 29640 ft | 426 kts | 280° |
| 2026-05-07 14:30 | 51.36692 | 2.63376 | 29933 ft | 428 kts | 280° |
| 2026-05-07 14:30 | 51.37267 | 2.58699 | 30202 ft | 429 kts | 280° |
| 2026-05-07 14:30 | 51.37843 | 2.54005 | 30431 ft | 431 kts | 280° |
| 2026-05-07 14:31 | 51.38422 | 2.49282 | 30658 ft | 432 kts | 280° |
| 2026-05-07 14:31 | 51.38998 | 2.44551 | 30885 ft | 434 kts | 279° |
| 2026-05-07 14:31 | 51.39572 | 2.39806 | 31098 ft | 435 kts | 279° |
| 2026-05-07 14:31 | 51.40145 | 2.35045 | 31377 ft | 435 kts | 279° |
| 2026-05-07 14:32 | 51.40715 | 2.30292 | 31682 ft | 434 kts | 279° |
| 2026-05-07 14:32 | 51.41283 | 2.25549 | 31983 ft | 433 kts | 279° |
| 2026-05-07 14:32 | 51.41853 | 2.20812 | 32280 ft | 433 kts | 279° |
| 2026-05-07 14:32 | 51.42429 | 2.16091 | 32573 ft | 432 kts | 280° |
| 2026-05-07 14:33 | 51.43008 | 2.11365 | 32862 ft | 432 kts | 280° |
| 2026-05-07 14:33 | 51.43576 | 2.06706 | 33150 ft | 431 kts | 279° |
| 2026-05-07 14:33 | 51.44156 | 2.01935 | 33444 ft | 431 kts | 279° |
| 2026-05-07 14:33 | 51.44724 | 1.97224 | 33735 ft | 430 kts | 279° |
| 2026-05-07 14:34 | 51.45283 | 1.92517 | 34028 ft | 429 kts | 279° |
| 2026-05-07 14:34 | 51.45835 | 1.87812 | 34291 ft | 429 kts | 279° |
| 2026-05-07 14:34 | 51.46382 | 1.83119 | 34522 ft | 429 kts | 279° |
| 2026-05-07 14:34 | 51.46925 | 1.78419 | 34733 ft | 429 kts | 279° |
| 2026-05-07 14:35 | 51.47469 | 1.73718 | 34932 ft | 429 kts | 279° |
| 2026-05-07 14:35 | 51.48010 | 1.69005 | 35118 ft | 430 kts | 279° |
| 2026-05-07 14:35 | 51.48539 | 1.64354 | 35301 ft | 430 kts | 279° |
| 2026-05-07 14:35 | 51.49083 | 1.59566 | 35489 ft | 430 kts | 279° |
| 2026-05-07 14:36 | 51.49614 | 1.54911 | 35670 ft | 431 kts | 279° |
| 2026-05-07 14:36 | 51.50155 | 1.50177 | 35841 ft | 431 kts | 279° |
| 2026-05-07 14:36 | 51.50693 | 1.45447 | 36020 ft | 431 kts | 279° |
| 2026-05-07 14:37 | 51.51758 | 1.35989 | 36087 ft | 430 kts | 278° |
| 2026-05-07 14:37 | 51.53323 | 1.21843 | 36084 ft | 429 kts | 278° |
| 2026-05-07 14:38 | 51.54353 | 1.12408 | 36081 ft | 429 kts | 278° |
| 2026-05-07 14:38 | 51.55385 | 1.02981 | 36081 ft | 429 kts | 278° |
| 2026-05-07 14:39 | 51.56413 | 0.93550 | 36085 ft | 428 kts | 278° |
| 2026-05-07 14:39 | 51.57432 | 0.84112 | 36091 ft | 429 kts | 278° |
| 2026-05-07 14:40 | 51.58441 | 0.74660 | 36078 ft | 429 kts | 278° |
| 2026-05-07 14:40 | 51.59440 | 0.65190 | 36069 ft | 430 kts | 278° |
| 2026-05-07 14:41 | 51.60443 | 0.55651 | 36077 ft | 430 kts | 278° |
| 2026-05-07 14:41 | 51.61429 | 0.46222 | 36065 ft | 430 kts | 278° |
| 2026-05-07 14:42 | 51.62410 | 0.36732 | 36069 ft | 430 kts | 278° |
| 2026-05-07 14:42 | 51.63381 | 0.27233 | 36068 ft | 430 kts | 278° |
| 2026-05-07 14:43 | 51.64786 | 0.17884 | 36068 ft | 432 kts | 291° |
| 2026-05-07 14:43 | 51.67975 | 0.09681 | 36058 ft | 436 kts | 311° |
| 2026-05-07 14:44 | 51.72238 | 0.02696 | 36056 ft | 437 kts | 313° |
| 2026-05-07 14:44 | 51.76497 | -0.04315 | 36062 ft | 438 kts | 312° |
| 2026-05-07 14:45 | 51.80751 | -0.11351 | 36062 ft | 438 kts | 312° |
| 2026-05-07 14:45 | 51.85006 | -0.18401 | 36033 ft | 439 kts | 313° |
| 2026-05-07 14:46 | 51.89270 | -0.25495 | 36033 ft | 440 kts | 312° |
| 2026-05-07 14:46 | 51.93534 | -0.32606 | 36034 ft | 440 kts | 312° |
| 2026-05-07 14:47 | 51.97806 | -0.39741 | 35995 ft | 442 kts | 312° |
| 2026-05-07 14:47 | 51.99946 | -0.43327 | 35489 ft | 444 kts | 312° |
| 2026-05-07 14:47 | 52.02098 | -0.46937 | 34810 ft | 444 kts | 313° |
| 2026-05-07 14:48 | 52.04235 | -0.50522 | 34310 ft | 440 kts | 313° |
| 2026-05-07 14:48 | 52.06354 | -0.54083 | 33723 ft | 438 kts | 313° |
| 2026-05-07 14:48 | 52.08457 | -0.57629 | 33184 ft | 433 kts | 313° |
| 2026-05-07 14:48 | 52.10542 | -0.61148 | 32644 ft | 430 kts | 313° |
| 2026-05-07 14:49 | 52.12610 | -0.64637 | 32127 ft | 426 kts | 313° |
| 2026-05-07 14:49 | 52.14661 | -0.68103 | 31609 ft | 423 kts | 313° |
| 2026-05-07 14:49 | 52.16665 | -0.71506 | 31102 ft | 420 kts | 313° |
| 2026-05-07 14:49 | 52.18708 | -0.74978 | 30585 ft | 418 kts | 313° |
| 2026-05-07 14:50 | 52.20712 | -0.78392 | 30077 ft | 415 kts | 313° |
| 2026-05-07 14:50 | 52.22702 | -0.81780 | 29542 ft | 412 kts | 313° |
| 2026-05-07 14:50 | 52.24764 | -0.84983 | 29058 ft | 408 kts | 321° |
| 2026-05-07 14:50 | 52.27094 | -0.87571 | 28599 ft | 404 kts | 328° |
| 2026-05-07 14:51 | 52.29488 | -0.89930 | 28129 ft | 400 kts | 328° |
| 2026-05-07 14:51 | 52.31851 | -0.92274 | 27690 ft | 396 kts | 328° |
| 2026-05-07 14:51 | 52.34197 | -0.94614 | 27264 ft | 393 kts | 328° |
| 2026-05-07 14:51 | 52.36516 | -0.96933 | 26836 ft | 389 kts | 328° |
| 2026-05-07 14:52 | 52.38814 | -0.99234 | 26433 ft | 386 kts | 328° |
| 2026-05-07 14:52 | 52.41093 | -1.01515 | 26003 ft | 383 kts | 327° |
| 2026-05-07 14:52 | 52.43355 | -1.03783 | 25554 ft | 380 kts | 327° |
| 2026-05-07 14:52 | 52.45606 | -1.06043 | 25119 ft | 377 kts | 327° |
| 2026-05-07 14:53 | 52.47807 | -1.08252 | 24674 ft | 375 kts | 327° |
| 2026-05-07 14:53 | 52.50026 | -1.10485 | 24226 ft | 373 kts | 327° |
| 2026-05-07 14:53 | 52.52233 | -1.12709 | 23775 ft | 372 kts | 327° |
| 2026-05-07 14:53 | 52.54432 | -1.14923 | 23258 ft | 370 kts | 327° |
| 2026-05-07 14:54 | 52.56622 | -1.17127 | 22788 ft | 367 kts | 327° |
| 2026-05-07 14:54 | 52.58795 | -1.19314 | 22340 ft | 365 kts | 327° |
| 2026-05-07 14:54 | 52.60948 | -1.21484 | 21889 ft | 362 kts | 327° |
| 2026-05-07 14:54 | 52.63088 | -1.23644 | 21449 ft | 359 kts | 326° |
| 2026-05-07 14:55 | 52.65212 | -1.25790 | 21008 ft | 357 kts | 326° |
| 2026-05-07 14:55 | 52.67326 | -1.27933 | 20568 ft | 355 kts | 326° |
| 2026-05-07 14:55 | 52.69425 | -1.30066 | 20143 ft | 354 kts | 326° |
| 2026-05-07 14:55 | 52.71513 | -1.32190 | 19705 ft | 353 kts | 326° |
| 2026-05-07 14:56 | 52.73600 | -1.34320 | 19295 ft | 352 kts | 326° |
| 2026-05-07 14:56 | 52.75682 | -1.36443 | 18856 ft | 351 kts | 326° |
| 2026-05-07 14:56 | 52.77761 | -1.38562 | 18420 ft | 351 kts | 326° |
| 2026-05-07 14:56 | 52.79840 | -1.40680 | 17943 ft | 350 kts | 326° |
| 2026-05-07 14:57 | 52.81907 | -1.42786 | 17504 ft | 348 kts | 326° |
| 2026-05-07 14:57 | 52.83964 | -1.44891 | 17072 ft | 347 kts | 326° |
| 2026-05-07 14:57 | 52.86012 | -1.46991 | 16636 ft | 345 kts | 326° |
| 2026-05-07 14:57 | 52.88048 | -1.49082 | 16208 ft | 344 kts | 326° |
| 2026-05-07 14:58 | 52.90085 | -1.51174 | 15774 ft | 343 kts | 326° |
| 2026-05-07 14:58 | 52.92114 | -1.53260 | 15355 ft | 343 kts | 326° |
| 2026-05-07 14:58 | 52.94139 | -1.55343 | 14909 ft | 343 kts | 327° |
| 2026-05-07 14:58 | 52.96257 | -1.57244 | 14109 ft | 346 kts | 331° |
| 2026-05-07 14:59 | 52.98380 | -1.58991 | 13637 ft | 336 kts | 333° |
| 2026-05-07 14:59 | 53.00492 | -1.60663 | 13214 ft | 335 kts | 333° |
| 2026-05-07 14:59 | 53.02595 | -1.62312 | 12801 ft | 333 kts | 333° |
| 2026-05-07 14:59 | 53.04687 | -1.63959 | 12369 ft | 332 kts | 333° |
| 2026-05-07 15:00 | 53.06066 | -1.65052 | 12102 ft | 331 kts | 332° |
| 2026-05-07 15:00 | 53.08131 | -1.66703 | 11774 ft | 326 kts | 332° |
| 2026-05-07 15:00 | 53.10139 | -1.68325 | 11642 ft | 316 kts | 332° |
| 2026-05-07 15:00 | 53.12098 | -1.69917 | 11375 ft | 310 kts | 332° |
| 2026-05-07 15:01 | 53.14020 | -1.71479 | 10773 ft | 306 kts | 332° |
| 2026-05-07 15:01 | 53.15928 | -1.73029 | 10151 ft | 303 kts | 332° |
| 2026-05-07 15:01 | 53.17800 | -1.74554 | 9637 ft | 296 kts | 331° |
| 2026-05-07 15:01 | 53.19617 | -1.76034 | 9214 ft | 285 kts | 331° |
| 2026-05-07 15:02 | 53.21374 | -1.77469 | 8816 ft | 281 kts | 331° |
| 2026-05-07 15:02 | 53.23129 | -1.78901 | 8422 ft | 281 kts | 332° |
| 2026-05-07 15:02 | 53.24879 | -1.80326 | 8029 ft | 280 kts | 331° |
| 2026-05-07 15:02 | 53.26624 | -1.81754 | 7621 ft | 279 kts | 331° |
| 2026-05-07 15:03 | 53.28363 | -1.83177 | 7204 ft | 279 kts | 331° |
| 2026-05-07 15:03 | 53.30087 | -1.84587 | 6813 ft | 271 kts | 331° |
| 2026-05-07 15:03 | 53.31777 | -1.85966 | 6389 ft | 271 kts | 331° |
| 2026-05-07 15:03 | 53.33475 | -1.87356 | 5949 ft | 272 kts | 331° |
| 2026-05-07 15:04 | 53.35157 | -1.88740 | 5557 ft | 269 kts | 331° |
| 2026-05-07 15:04 | 53.36821 | -1.90112 | 5117 ft | 260 kts | 331° |
| 2026-05-07 15:04 | 53.38392 | -1.91404 | 4915 ft | 246 kts | 331° |
| 2026-05-07 15:04 | 53.39915 | -1.92658 | 4707 ft | 242 kts | 332° |
| 2026-05-07 15:05 | 53.41423 | -1.93904 | 4581 ft | 242 kts | 331° |
| 2026-05-07 15:05 | 53.42935 | -1.95150 | 4471 ft | 242 kts | 331° |
| 2026-05-07 15:05 | 53.44310 | -1.96727 | 4369 ft | 239 kts | 312° |
| 2026-05-07 15:05 | 53.45314 | -1.98929 | 3979 ft | 240 kts | 294° |
| 2026-05-07 15:06 | 53.45820 | -2.01553 | 3654 ft | 231 kts | 273° |
| 2026-05-07 15:06 | 53.45801 | -2.04123 | 3451 ft | 213 kts | 256° |
| 2026-05-07 15:06 | 53.45366 | -2.06391 | 3246 ft | 197 kts | 239° |
| 2026-05-07 15:06 | 53.44626 | -2.08252 | 2991 ft | 188 kts | 227° |
| 2026-05-07 15:07 | 53.43817 | -2.09938 | 2732 ft | 183 kts | 227° |
| 2026-05-07 15:07 | 53.43030 | -2.11582 | 2475 ft | 178 kts | 227° |
| 2026-05-07 15:07 | 53.42266 | -2.13176 | 2237 ft | 174 kts | 227° |
| 2026-05-07 15:07 | 53.41515 | -2.14741 | 2002 ft | 170 kts | 227° |
| 2026-05-07 15:08 | 53.40802 | -2.16227 | 1772 ft | 159 kts | 226° |
| 2026-05-07 15:08 | 53.40127 | -2.17632 | 1554 ft | 148 kts | 227° |
| 2026-05-07 15:08 | 53.39504 | -2.18927 | 1369 ft | 141 kts | 227° |
| 2026-05-07 15:08 | 53.38903 | -2.20175 | 1182 ft | 136 kts | 226° |
| 2026-05-07 15:09 | 53.38308 | -2.21408 | 983 ft | 134 kts | 225° |
| 2026-05-07 15:09 | 53.37727 | -2.22615 | 803 ft | 135 kts | 227° |
| 2026-05-07 15:09 | 53.37128 | -2.23863 | 583 ft | 137 kts | 228° |
| 2026-05-07 15:09 | 53.36536 | -2.25087 | 372 ft | 137 kts | 229° |
| 2026-05-07 15:10 | 53.35942 | -2.26326 | 239 ft | 132 kts | 229° |
| 2026-05-07 15:10 | 53.35457 | -2.27319 | 245 ft | 85 kts | 231° |
| 2026-05-07 15:10 | 53.35193 | -2.27869 | 253 ft | 36 kts | 231° |
| 2026-05-07 15:10 | 53.35086 | -2.28095 | 255 ft | 12 kts | 242° |
| 2026-05-07 15:11 | 53.35131 | -2.28188 | 254 ft | 13 kts | 335° |
| 2026-05-07 15:11 | 53.35227 | -2.28195 | 254 ft | 10 kts | 5° |
| 2026-05-07 15:11 | 53.35239 | -2.28193 | 254 ft | 0 kts | 6° |
| 2026-05-07 15:13 | 53.35249 | -2.28191 | 254 ft | 7 kts | 6° |
| 2026-05-07 15:13 | 53.35326 | -2.28131 | 253 ft | 14 kts | 42° |
| 2026-05-07 15:13 | 53.35394 | -2.28020 | 252 ft | 13 kts | 44° |
| 2026-05-07 15:14 | 53.35457 | -2.27918 | 251 ft | 12 kts | 43° |
| 2026-05-07 15:14 | 53.35524 | -2.27812 | 250 ft | 14 kts | 44° |
| 2026-05-07 15:14 | 53.35592 | -2.27700 | 248 ft | 14 kts | 44° |
| 2026-05-07 15:14 | 53.35632 | -2.27636 | 247 ft | 6 kts | 44° |
| 2026-05-07 15:15 | 53.35673 | -2.27608 | 247 ft | 8 kts | 4° |
| 2026-05-07 15:15 | 53.35743 | -2.27649 | 247 ft | 10 kts | 339° |
| 2026-05-07 15:15 | 53.35804 | -2.27718 | 248 ft | 13 kts | 314° |
| 2026-05-07 15:15 | 53.35860 | -2.27819 | 249 ft | 10 kts | 314° |
| 2026-05-07 15:16 | 53.35923 | -2.27845 | 249 ft | 10 kts | 5° |
| 2026-05-07 15:16 | 53.35974 | -2.27837 | 249 ft | 0 kts | 6° |
| 2026-05-07 15:16 | 53.36027 | -2.27833 | 249 ft | 13 kts | 353° |
| 2026-05-07 15:17 | 53.36097 | -2.27900 | 249 ft | 11 kts | 315° |
| 2026-05-07 15:17 | 53.36145 | -2.27981 | 250 ft | 9 kts | 315° |
| 2026-05-07 15:17 | 53.36182 | -2.28042 | 250 ft | 6 kts | 316° |
| 2026-05-07 15:17 | 53.36208 | -2.28084 | 251 ft | 5 kts | 316° |
| 2026-05-07 15:18 | 53.36228 | -2.28118 | 251 ft | 4 kts | 314° |
| 2026-05-07 15:18 | 53.36252 | -2.28159 | 251 ft | 7 kts | 314° |
| 2026-05-07 15:18 | 53.36289 | -2.28223 | 251 ft | 12 kts | 314° |
| 2026-05-07 15:18 | 53.36350 | -2.28327 | 252 ft | 12 kts | 315° |
| 2026-05-07 15:19 | 53.36404 | -2.28416 | 252 ft | 9 kts | 315° |